createdAt,value
2024-01-22T00:01:46.634Z,94.66
2024-01-22T00:04:13.641Z,93.70
2024-01-22T00:06:41.126Z,94.04
2024-01-22T00:09:08.213Z,94.30
2024-01-22T00:11:35.367Z,93.51
2024-01-22T00:14:02.079Z,93.86
2024-01-22T00:16:28.758Z,93.52
2024-01-22T00:18:55.516Z,93.41
2024-01-22T00:21:22.286Z,93.82
2024-01-22T00:23:49.137Z,94.07
2024-01-22T00:26:20.769Z,93.68
2024-01-22T00:28:47.387Z,94.03
2024-01-22T00:31:13.982Z,94.25
2024-01-22T00:33:43.191Z,94.55
2024-01-22T00:36:13.735Z,94.37
2024-01-22T00:38:42.016Z,94.30
2024-01-22T00:41:09.499Z,94.29
2024-01-22T00:43:37.856Z,94.06
2024-01-22T00:46:05.190Z,94.16
2024-01-22T00:48:32.027Z,93.74
2024-01-22T00:50:58.816Z,93.56
2024-01-22T00:53:25.520Z,93.15
2024-01-22T00:55:52.143Z,93.25
2024-01-22T00:58:18.831Z,93.10
2024-01-22T01:00:45.530Z,93.27
2024-01-22T01:03:12.397Z,93.53
2024-01-22T01:05:39.124Z,93.08
2024-01-22T01:08:06.149Z,93.49
2024-01-22T01:10:33.515Z,92.74
2024-01-22T01:13:00.324Z,92.21
2024-01-22T01:15:27.011Z,92.70
2024-01-22T01:17:53.820Z,92.37
2024-01-22T01:20:20.520Z,91.88
2024-01-22T01:22:47.269Z,91.86
2024-01-22T01:25:13.963Z,91.59
2024-01-22T01:27:40.847Z,91.31
2024-01-22T01:30:08.322Z,90.92
2024-01-22T01:32:35.414Z,91.57
2024-01-22T01:35:02.076Z,91.75
2024-01-22T01:37:28.720Z,91.96
2024-01-22T01:39:55.346Z,92.30
2024-01-22T01:42:22.973Z,92.62
2024-01-22T01:44:51.624Z,93.20
2024-01-22T01:47:18.985Z,94.27
2024-01-22T01:49:47.661Z,94.26
2024-01-22T01:52:16.961Z,94.13
2024-01-22T01:54:46.109Z,94.27
2024-01-22T01:57:14.835Z,93.99
2024-01-22T01:59:43.921Z,93.82
2024-01-22T02:02:10.923Z,93.12
2024-01-22T02:04:37.718Z,93.37
2024-01-22T02:07:05.059Z,93.50
2024-01-22T02:09:48.905Z,93.38
2024-01-22T02:12:17.156Z,92.17
2024-01-22T02:14:44.671Z,91.65
2024-01-22T02:17:11.454Z,90.26
2024-01-22T02:19:38.261Z,89.55
2024-01-22T02:22:05.882Z,88.57
2024-01-22T02:24:32.574Z,87.71
2024-01-22T02:26:59.424Z,86.84
2024-01-22T02:29:26.101Z,86.90
2024-01-22T02:31:55.494Z,86.46
2024-01-22T02:34:22.169Z,85.99
2024-01-22T02:36:48.817Z,85.75
2024-01-22T02:39:15.894Z,85.83
2024-01-22T02:41:43.015Z,85.28
2024-01-22T02:44:09.801Z,84.16
2024-01-22T02:46:36.601Z,85.31
2024-01-22T02:49:03.532Z,84.91
2024-01-22T02:51:30.308Z,84.26
2024-01-22T02:53:57.048Z,83.63
2024-01-22T02:56:25.535Z,83.64
2024-01-22T02:58:52.286Z,82.82
2024-01-22T03:01:18.955Z,83.00
2024-01-22T03:03:45.747Z,82.66
2024-01-22T03:06:13.502Z,83.72
2024-01-22T03:08:40.261Z,83.59
2024-01-22T03:11:07.999Z,83.29
2024-01-22T03:13:35.211Z,83.21
2024-01-22T03:16:01.921Z,83.39
2024-01-22T03:18:29.682Z,83.79
2024-01-22T03:20:56.438Z,83.85
2024-01-22T03:23:23.139Z,83.81
2024-01-22T03:25:49.775Z,83.26
2024-01-22T03:28:16.421Z,83.76
2024-01-22T03:30:43.081Z,83.80
2024-01-22T03:33:09.911Z,83.95
2024-01-22T03:35:36.653Z,84.03
2024-01-22T03:38:03.602Z,83.33
2024-01-22T03:40:30.346Z,83.29
2024-01-22T03:42:57.056Z,82.69
2024-01-22T03:45:23.793Z,82.71
2024-01-22T03:47:50.595Z,82.88
2024-01-22T03:50:17.292Z,82.62
2024-01-22T03:52:43.945Z,82.88
2024-01-22T03:55:10.939Z,82.85
2024-01-22T03:57:37.573Z,83.44
2024-01-22T04:00:05.347Z,84.43
2024-01-22T04:02:35.429Z,84.91
2024-01-22T04:05:02.656Z,85.69
2024-01-22T04:07:29.311Z,85.54
2024-01-22T04:09:56.162Z,85.43
2024-01-22T04:12:22.959Z,85.85
2024-01-22T04:14:50.126Z,85.55
2024-01-22T04:17:16.890Z,85.23
2024-01-22T04:19:44.301Z,85.29
2024-01-22T04:22:11.253Z,84.87
2024-01-22T04:24:38.744Z,85.09
2024-01-22T04:27:05.482Z,84.47
2024-01-22T04:29:35.242Z,83.89
2024-01-22T04:32:02.379Z,82.70
2024-01-22T04:34:29.488Z,82.44
2024-01-22T04:36:56.497Z,82.24
2024-01-22T04:39:24.843Z,81.16
2024-01-22T04:41:52.148Z,80.77
2024-01-22T04:44:18.877Z,80.68
2024-01-22T04:46:45.550Z,80.36
2024-01-22T04:49:12.551Z,79.70
2024-01-22T04:51:42.947Z,78.23
2024-01-22T04:54:11.064Z,78.06
2024-01-22T04:56:47.768Z,77.70
2024-01-22T04:59:15.368Z,76.86
2024-01-22T05:01:43.350Z,76.76
2024-01-22T05:04:10.285Z,77.24
2024-01-22T05:06:37.123Z,76.17
2024-01-22T05:09:05.451Z,76.34
2024-01-22T05:11:32.452Z,75.20
2024-01-22T05:13:59.492Z,75.79
2024-01-22T05:16:26.271Z,75.33
2024-01-22T05:18:53.725Z,75.10
2024-01-22T05:21:22.796Z,75.45
2024-01-22T05:23:50.519Z,75.81
2024-01-22T05:26:17.693Z,76.19
2024-01-22T05:28:44.473Z,75.46
2024-01-22T05:31:11.423Z,76.11
2024-01-22T05:33:38.305Z,76.16
2024-01-22T05:36:05.258Z,76.64
2024-01-22T05:38:32.387Z,75.92
2024-01-22T05:40:59.057Z,76.27
2024-01-22T05:43:25.807Z,76.24
2024-01-22T05:45:53.089Z,75.48
2024-01-22T05:48:19.883Z,75.60
2024-01-22T05:50:46.667Z,76.21
2024-01-22T05:53:13.661Z,76.26
2024-01-22T05:55:42.172Z,75.78
2024-01-22T05:58:08.998Z,76.91
2024-01-22T06:00:35.791Z,76.86
2024-01-22T06:03:02.737Z,77.05
2024-01-22T06:05:29.417Z,76.76
2024-01-22T06:07:56.218Z,77.32
2024-01-22T06:10:22.986Z,78.07
2024-01-22T06:12:49.799Z,78.13
2024-01-22T06:15:16.658Z,78.43
2024-01-22T06:17:43.625Z,78.52
2024-01-22T06:20:11.285Z,78.67
2024-01-22T06:22:38.110Z,78.33
2024-01-22T06:25:06.813Z,78.64
2024-01-22T06:27:33.959Z,78.30
2024-01-22T06:30:01.244Z,78.30
2024-01-22T06:32:30.578Z,77.35
2024-01-22T06:34:57.770Z,77.33
2024-01-22T06:37:27.372Z,77.44
2024-01-22T06:39:54.202Z,77.62
2024-01-22T06:42:27.741Z,77.63
2024-01-22T06:45:01.312Z,78.18
2024-01-22T06:47:31.134Z,78.25
2024-01-22T06:49:58.163Z,78.18
2024-01-22T06:52:24.881Z,78.48
2024-01-22T06:54:51.522Z,78.96
2024-01-22T06:57:18.179Z,79.15
2024-01-22T06:59:44.915Z,79.07
2024-01-22T07:02:11.761Z,79.50
2024-01-22T07:04:38.397Z,79.81
2024-01-22T07:07:05.358Z,80.32
2024-01-22T07:09:32.316Z,80.85
2024-01-22T07:11:59.243Z,80.23
2024-01-22T07:14:26.241Z,80.48
2024-01-22T07:16:52.880Z,81.08
2024-01-22T07:19:19.721Z,81.45
2024-01-22T07:21:47.932Z,80.88
2024-01-22T07:24:14.649Z,81.23
2024-01-22T07:26:42.440Z,80.38
2024-01-22T07:29:10.376Z,80.23
2024-01-22T07:31:37.025Z,80.19
2024-01-22T07:34:04.178Z,80.08
2024-01-22T07:36:31.084Z,79.96
2024-01-22T07:38:59.004Z,79.43
2024-01-22T07:41:25.769Z,79.61
2024-01-22T07:43:52.661Z,79.87
2024-01-22T07:46:19.246Z,80.31
2024-01-22T07:48:46.226Z,79.96
2024-01-22T07:51:14.583Z,80.10
2024-01-22T07:53:41.417Z,80.07
2024-01-22T07:56:08.197Z,80.88
2024-01-22T07:58:34.891Z,80.59
2024-01-22T08:01:01.748Z,80.39
2024-01-22T08:03:29.403Z,80.93
2024-01-22T08:05:56.250Z,80.64
2024-01-22T08:08:23.176Z,80.53
2024-01-22T08:10:49.879Z,80.70
2024-01-22T08:13:16.617Z,80.44
2024-01-22T08:15:43.344Z,80.57
2024-01-22T08:18:10.171Z,80.34
2024-01-22T08:20:36.980Z,80.24
2024-01-22T08:23:03.749Z,80.40
2024-01-22T08:25:30.377Z,80.86
2024-01-22T08:27:57.500Z,80.41
2024-01-22T08:30:25.297Z,80.29
2024-01-22T08:32:52.902Z,80.42
2024-01-22T08:35:21.026Z,80.31
2024-01-22T08:37:53.511Z,80.52
2024-01-22T08:40:24.250Z,79.98
2024-01-22T08:43:00.392Z,79.66
2024-01-22T08:45:27.080Z,79.63
2024-01-22T08:47:53.975Z,80.01
2024-01-22T08:50:22.684Z,80.09
2024-01-22T08:52:51.321Z,79.69
2024-01-22T08:55:19.821Z,79.49
2024-01-22T08:57:46.805Z,79.66
2024-01-22T09:00:15.609Z,79.52
2024-01-22T09:02:43.928Z,79.45
2024-01-22T09:05:12.432Z,79.75
2024-01-22T09:07:39.386Z,79.35
2024-01-22T09:10:08.437Z,79.34
2024-01-22T09:12:36.287Z,80.16
2024-01-22T09:15:05.222Z,79.90
2024-01-22T09:17:32.069Z,80.10
2024-01-22T09:19:58.926Z,79.94
2024-01-22T09:22:29.898Z,79.31
2024-01-22T09:24:56.914Z,79.39
2024-01-22T09:27:25.050Z,79.08
2024-01-22T09:29:51.819Z,78.17
2024-01-22T09:32:19.766Z,77.93
2024-01-22T09:34:46.834Z,77.25
2024-01-22T09:37:13.536Z,77.19
2024-01-22T09:39:40.234Z,77.15
2024-01-22T09:42:07.463Z,77.19
2024-01-22T09:44:36.523Z,75.00
2024-01-22T09:47:06.188Z,76.02
2024-01-22T09:49:33.111Z,75.74
2024-01-22T09:52:01.706Z,74.49
2024-01-22T09:54:31.488Z,73.78
2024-01-22T09:57:03.834Z,73.87
2024-01-22T09:59:31.040Z,73.51
2024-01-22T10:01:57.919Z,72.54
2024-01-22T10:04:27.218Z,71.31
2024-01-22T10:06:54.260Z,70.77
2024-01-22T10:09:21.104Z,70.46
2024-01-22T10:11:48.379Z,70.74
2024-01-22T10:14:15.258Z,69.90
2024-01-22T10:16:41.966Z,70.22
2024-01-22T10:19:10.272Z,69.54
2024-01-22T10:21:38.981Z,69.75
2024-01-22T10:24:07.317Z,69.25
2024-01-22T10:26:35.428Z,67.94
2024-01-22T10:29:20.077Z,66.43
2024-01-22T10:31:57.577Z,67.83
2024-01-22T10:34:32.451Z,67.08
2024-01-22T10:37:13.565Z,65.82
2024-01-22T10:39:45.177Z,66.14
2024-01-22T10:42:15.889Z,64.53
2024-01-22T10:44:48.230Z,65.39
2024-01-22T10:47:16.346Z,66.30
2024-01-22T10:49:45.629Z,66.00
2024-01-22T10:52:14.171Z,65.07
2024-01-22T10:54:41.940Z,66.24
2024-01-22T10:57:38.580Z,65.56
2024-01-22T11:00:10.155Z,66.85
2024-01-22T11:02:43.931Z,66.12
2024-01-22T11:05:16.010Z,67.26
2024-01-22T11:07:45.365Z,66.99
2024-01-22T11:10:13.803Z,67.61
2024-01-22T11:12:49.926Z,66.66
2024-01-22T11:15:17.214Z,67.73
2024-01-22T11:17:45.516Z,67.43
2024-01-22T11:20:21.452Z,66.69
2024-01-22T11:23:06.102Z,67.32
2024-01-22T11:25:35.402Z,67.41
2024-01-22T11:28:02.084Z,65.76
2024-01-22T11:30:33.425Z,65.64
2024-01-22T11:33:00.440Z,64.99
2024-01-22T11:35:38.245Z,63.08
2024-01-22T11:38:06.102Z,64.85
2024-01-22T11:40:54.082Z,64.22
2024-01-22T11:43:22.639Z,64.59
2024-01-22T11:45:59.074Z,63.91
2024-01-22T11:48:28.665Z,63.98
2024-01-22T11:50:57.886Z,63.10
2024-01-22T11:53:24.763Z,63.88
2024-01-22T11:56:03.554Z,64.41
2024-01-22T11:58:34.841Z,64.93
2024-01-22T12:01:01.943Z,64.16
2024-01-22T12:03:32.878Z,64.68
2024-01-22T12:06:01.371Z,64.66
2024-01-22T12:08:28.886Z,64.19
2024-01-22T12:11:10.120Z,63.53
2024-01-22T12:13:45.726Z,63.59
2024-01-22T12:16:19.997Z,64.61
2024-01-22T12:18:47.149Z,63.56
2024-01-22T12:21:14.687Z,63.28
2024-01-22T12:23:42.590Z,63.48
2024-01-22T12:26:38.281Z,61.47
2024-01-22T12:29:05.333Z,62.18
2024-01-22T12:31:32.295Z,62.36
2024-01-22T12:34:12.777Z,60.97
2024-01-22T12:36:40.070Z,60.84
2024-01-22T12:39:08.612Z,60.84
2024-01-22T12:41:36.176Z,60.21
2024-01-22T12:44:03.444Z,60.92
2024-01-22T12:46:32.905Z,60.94
2024-01-22T12:49:00.215Z,61.34
2024-01-22T12:51:28.451Z,60.94
2024-01-22T12:53:56.339Z,61.80
2024-01-22T12:56:23.986Z,61.50
2024-01-22T12:58:53.093Z,61.93
2024-01-22T13:01:19.949Z,62.72
2024-01-22T13:03:47.204Z,62.00
2024-01-22T13:06:14.481Z,62.12
2024-01-22T13:08:41.273Z,63.00
2024-01-22T13:11:08.164Z,63.07
2024-01-22T13:13:35.337Z,62.50
2024-01-22T13:16:12.796Z,62.43
2024-01-22T13:18:45.532Z,62.89
2024-01-22T13:21:14.649Z,62.64
2024-01-22T13:23:42.078Z,62.41
2024-01-22T13:26:10.353Z,62.67
2024-01-22T13:28:38.132Z,61.90
2024-01-22T13:31:05.422Z,61.54
2024-01-22T13:33:32.666Z,61.30
2024-01-22T13:35:59.392Z,61.18
2024-01-22T13:38:29.595Z,60.78
2024-01-22T13:40:57.566Z,61.09
2024-01-22T13:43:24.412Z,60.95
2024-01-22T13:45:52.359Z,59.39
2024-01-22T13:48:19.227Z,60.25
2024-01-22T13:50:46.561Z,59.73
2024-01-22T13:53:13.498Z,59.14
2024-01-22T13:55:40.240Z,59.29
2024-01-22T13:58:09.052Z,58.14
2024-01-22T14:00:36.354Z,59.09
2024-01-22T14:03:05.832Z,59.03
2024-01-22T14:05:32.701Z,59.99
2024-01-22T14:08:00.564Z,59.01
2024-01-22T14:10:27.659Z,59.69
2024-01-22T14:12:54.432Z,59.79
2024-01-22T14:15:22.805Z,60.27
2024-01-22T14:17:49.938Z,60.62
2024-01-22T14:20:16.901Z,60.80
2024-01-22T14:22:44.301Z,61.12
2024-01-22T14:25:12.300Z,61.28
2024-01-22T14:27:39.180Z,61.45
2024-01-22T14:30:06.761Z,61.04
2024-01-22T14:32:33.860Z,61.71
2024-01-22T14:35:01.393Z,61.31
2024-01-22T14:37:28.500Z,61.45
2024-01-22T14:39:55.477Z,61.60
2024-01-22T14:42:22.590Z,61.75
2024-01-22T14:44:49.622Z,61.72
2024-01-22T14:47:16.708Z,62.00
2024-01-22T14:49:43.719Z,62.38
2024-01-22T14:52:11.570Z,61.86
2024-01-22T14:54:38.458Z,62.11
2024-01-22T14:57:05.271Z,62.26
2024-01-22T14:59:35.010Z,61.35
2024-01-22T15:02:01.636Z,61.66
2024-01-22T15:04:28.485Z,62.05
2024-01-22T15:06:55.221Z,61.70
2024-01-22T15:09:22.563Z,62.13
2024-01-22T15:11:49.522Z,61.87
2024-01-22T15:14:19.358Z,61.30
2024-01-22T15:16:49.771Z,61.14
2024-01-22T15:19:16.793Z,61.00
2024-01-22T15:21:44.035Z,61.74
2024-01-22T15:24:14.549Z,62.21
2024-01-22T15:26:41.625Z,62.25
2024-01-22T15:29:08.890Z,61.99
2024-01-22T15:31:37.711Z,62.65
2024-01-22T15:34:06.089Z,62.55
2024-01-22T15:36:33.770Z,62.68
2024-01-22T15:39:02.058Z,62.96
2024-01-22T15:41:29.254Z,63.08
2024-01-22T15:43:56.762Z,63.60
2024-01-22T15:46:23.624Z,63.05
2024-01-22T15:48:50.941Z,63.91
2024-01-22T15:51:17.875Z,63.78
2024-01-22T15:53:44.662Z,64.57
2024-01-22T15:56:11.311Z,64.41
2024-01-22T15:58:37.956Z,64.72
2024-01-22T16:01:05.945Z,64.77
2024-01-22T16:03:32.718Z,64.36
2024-01-22T16:06:04.180Z,64.66
2024-01-22T16:08:31.192Z,65.02
2024-01-22T16:10:57.964Z,64.86
2024-01-22T16:13:24.653Z,64.68
2024-01-22T16:15:51.327Z,64.71
2024-01-22T16:18:18.238Z,64.66
2024-01-22T16:20:45.718Z,65.17
2024-01-22T16:23:12.635Z,64.92
2024-01-22T16:25:39.622Z,65.79
2024-01-22T16:28:07.831Z,65.59
2024-01-22T16:30:41.893Z,65.67
2024-01-22T16:33:10.216Z,65.96
2024-01-22T16:35:36.975Z,65.46
2024-01-22T16:38:03.835Z,65.38
2024-01-22T16:40:30.571Z,66.26
2024-01-22T16:42:57.235Z,66.31
2024-01-22T16:45:23.919Z,66.41
2024-01-22T16:47:50.944Z,65.39
2024-01-22T16:50:17.764Z,65.79
2024-01-22T16:52:44.489Z,65.24
2024-01-22T16:55:12.547Z,65.30
2024-01-22T16:57:39.931Z,64.80
2024-01-22T17:00:07.569Z,65.14
2024-01-22T17:02:34.561Z,64.58
2024-01-22T17:05:01.327Z,64.87
2024-01-22T17:07:28.217Z,64.46
2024-01-22T17:09:55.030Z,65.16
2024-01-22T17:12:22.116Z,64.80
2024-01-22T17:14:49.290Z,64.94
2024-01-22T17:17:16.084Z,65.42
2024-01-22T17:19:43.094Z,66.12
2024-01-22T17:22:10.642Z,65.83
2024-01-22T17:24:38.349Z,66.00
2024-01-22T17:27:06.344Z,66.41
2024-01-22T17:29:33.345Z,66.07
2024-01-22T17:32:00.085Z,66.63
2024-01-22T17:34:27.039Z,66.70
2024-01-22T17:36:54.069Z,66.86
2024-01-22T17:39:20.995Z,66.94
2024-01-22T17:41:48.251Z,67.08
2024-01-22T17:44:16.303Z,67.71
2024-01-22T17:46:46.221Z,67.07
2024-01-22T17:49:13.607Z,67.02
2024-01-22T17:51:40.362Z,67.30
2024-01-22T17:54:08.586Z,67.78
2024-01-22T17:56:36.462Z,67.48
2024-01-22T17:59:03.204Z,67.84
2024-01-22T18:01:29.861Z,67.85
2024-01-22T18:03:59.264Z,68.60
2024-01-22T18:06:26.899Z,69.06
2024-01-22T18:08:53.848Z,70.74
2024-01-22T18:11:23.319Z,72.41
2024-01-22T18:13:50.203Z,72.59
2024-01-22T18:16:16.917Z,72.90
2024-01-22T18:18:43.758Z,72.97
2024-01-22T18:21:10.691Z,73.62
2024-01-22T18:23:37.465Z,73.82
2024-01-22T18:26:04.344Z,74.84
2024-01-22T18:28:31.564Z,74.84
2024-01-22T18:30:58.213Z,74.65
2024-01-22T18:33:26.964Z,75.58
2024-01-22T18:35:54.477Z,76.18
2024-01-22T18:38:21.401Z,75.94
2024-01-22T18:40:48.215Z,76.51
2024-01-22T18:43:16.881Z,76.47
2024-01-22T18:45:43.759Z,77.53
2024-01-22T18:48:10.610Z,77.85
2024-01-22T18:50:37.374Z,78.11
2024-01-22T18:53:05.214Z,78.19
2024-01-22T18:55:31.858Z,79.06
2024-01-22T18:57:58.802Z,79.33
2024-01-22T19:00:25.530Z,79.43
2024-01-22T19:02:54.200Z,80.13
2024-01-22T19:05:22.239Z,80.60
2024-01-22T19:07:51.478Z,80.62
2024-01-22T19:10:18.209Z,80.66
2024-01-22T19:12:45.270Z,80.92
2024-01-22T19:15:12.216Z,81.01
2024-01-22T19:17:38.925Z,81.51
2024-01-22T19:20:06.825Z,81.46
2024-01-22T19:22:33.586Z,81.27
2024-01-22T19:25:00.297Z,81.37
2024-01-22T19:27:27.042Z,81.71
2024-01-22T19:29:54.798Z,81.58
2024-01-22T19:32:21.515Z,81.52
2024-01-22T19:34:48.229Z,80.42
2024-01-22T19:37:15.153Z,80.93
2024-01-22T19:39:43.198Z,80.05
2024-01-22T19:42:10.028Z,79.96
2024-01-22T19:44:38.118Z,79.98
2024-01-22T19:47:05.384Z,79.69
2024-01-22T19:49:32.183Z,79.75
2024-01-22T19:51:58.875Z,79.35
2024-01-22T19:54:25.586Z,79.39
2024-01-22T19:56:52.766Z,79.83
2024-01-22T19:59:19.602Z,79.36
2024-01-22T20:01:46.461Z,79.64
2024-01-22T20:04:13.635Z,79.47
2024-01-22T20:06:40.548Z,79.52
2024-01-22T20:09:07.399Z,78.89
2024-01-22T20:11:34.496Z,78.93
2024-01-22T20:14:01.755Z,79.20
2024-01-22T20:16:28.397Z,78.57
2024-01-22T20:18:55.380Z,78.39
2024-01-22T20:21:23.321Z,77.79
2024-01-22T20:24:01.006Z,78.12
2024-01-22T20:26:35.478Z,77.18
2024-01-22T20:29:02.937Z,77.71
2024-01-22T20:31:32.705Z,77.13
2024-01-22T20:33:59.898Z,77.63
2024-01-22T20:36:27.715Z,77.81
2024-01-22T20:38:57.987Z,77.74
2024-01-22T20:41:25.190Z,77.12
2024-01-22T20:43:54.083Z,77.38
2024-01-22T20:46:23.504Z,76.48
2024-01-22T20:48:53.324Z,76.72
2024-01-22T20:51:20.107Z,75.93
2024-01-22T20:53:47.321Z,75.62
2024-01-22T20:56:14.177Z,75.77
2024-01-22T20:58:43.289Z,75.21
2024-01-22T21:01:13.089Z,75.64
2024-01-22T21:03:40.394Z,75.02
2024-01-22T21:06:09.928Z,75.03
2024-01-22T21:08:37.045Z,75.10
2024-01-22T21:11:04.243Z,75.65
2024-01-22T21:13:33.842Z,75.42
2024-01-22T21:16:02.838Z,75.22
2024-01-22T21:18:30.425Z,75.03
2024-01-22T21:20:58.441Z,75.06
2024-01-22T21:23:25.275Z,75.27
2024-01-22T21:25:51.944Z,75.95
2024-01-22T21:28:18.704Z,75.83
2024-01-22T21:30:45.411Z,75.68
2024-01-22T21:33:13.480Z,75.20
2024-01-22T21:35:40.475Z,75.01
2024-01-22T21:38:07.175Z,75.75
2024-01-22T21:40:33.810Z,75.50
2024-01-22T21:43:00.569Z,74.69
2024-01-22T21:45:30.719Z,74.97
2024-01-22T21:47:57.842Z,75.03
2024-01-22T21:50:24.584Z,75.32
2024-01-22T21:52:51.338Z,75.13
2024-01-22T21:55:18.061Z,74.87
2024-01-22T21:57:45.596Z,75.02
2024-01-22T22:00:12.779Z,74.57
2024-01-22T22:02:40.143Z,74.75
2024-01-22T22:05:09.609Z,74.21
2024-01-22T22:07:38.403Z,74.07
2024-01-22T22:10:08.047Z,74.76
2024-01-22T22:12:37.242Z,74.13
2024-01-22T22:15:04.366Z,74.39
2024-01-22T22:17:31.254Z,74.26
2024-01-22T22:19:58.496Z,73.69
2024-01-22T22:22:25.310Z,74.60
2024-01-22T22:24:51.965Z,73.89
2024-01-22T22:27:18.605Z,73.77
2024-01-22T22:29:45.282Z,73.40
2024-01-22T22:32:11.955Z,74.44
2024-01-22T22:34:38.855Z,74.15
2024-01-22T22:37:05.548Z,73.83
2024-01-22T22:39:32.284Z,74.18
2024-01-22T22:41:58.926Z,73.96
2024-01-22T22:44:25.668Z,73.74
2024-01-22T22:46:52.326Z,74.78
2024-01-22T22:49:19.194Z,73.97
2024-01-22T22:51:45.953Z,73.71
2024-01-22T22:54:12.698Z,74.42
2024-01-22T22:56:39.921Z,74.44
2024-01-22T22:59:06.775Z,74.55
2024-01-22T23:01:33.525Z,74.28
2024-01-22T23:04:02.689Z,73.60
2024-01-22T23:06:30.283Z,73.55
2024-01-22T23:08:57.564Z,74.43
2024-01-22T23:11:24.369Z,73.91
2024-01-22T23:13:51.084Z,73.45
2024-01-22T23:16:17.746Z,74.41
2024-01-22T23:18:44.603Z,74.42
2024-01-22T23:21:12.140Z,74.08
2024-01-22T23:23:39.991Z,73.36
2024-01-22T23:26:07.152Z,74.59
2024-01-22T23:28:34.027Z,73.31
2024-01-22T23:31:01.579Z,73.70
2024-01-22T23:33:28.478Z,73.42
2024-01-22T23:35:55.280Z,72.86
2024-01-22T23:38:22.137Z,74.03
2024-01-22T23:40:49.028Z,73.74
2024-01-22T23:43:15.944Z,73.63
2024-01-22T23:45:44.730Z,73.16
2024-01-22T23:48:12.343Z,72.90
2024-01-22T23:50:39.226Z,72.61
2024-01-22T23:53:06.020Z,72.52
2024-01-22T23:55:32.768Z,72.59
2024-01-22T23:57:59.475Z,73.70
